Time;durP1;ratioP1;P1;durP2;ratioP2;P2;SDS_P1;SDS_P2;PMS_P1;PMS_P2;Temp;Humidity;BMP_temperature;BMP_pressure;BME280_temperature;BME280_humidity;BME280_pressure;Samples;Min_cycle;Max_cycle;Signal;HPM_P1;HPM_P2
2022/08/23 00:01:15;;;;;;;3.70;1.98;;;20.50;66.60;;;;;;5053724;28;20222;-59
2022/08/23 00:03:41;;;;;;;2.80;2.00;;;20.50;66.60;;;;;;5053943;28;20197;-58
2022/08/23 00:06:07;;;;;;;2.20;1.60;;;20.50;66.70;;;;;;5053720;28;20259;-59
2022/08/23 00:08:34;;;;;;;3.13;1.45;;;20.50;67.00;;;;;;5053817;28;20174;-58
2022/08/23 00:10:59;;;;;;;1.75;1.63;;;20.40;67.10;;;;;;5053550;28;20640;-58
2022/08/23 00:13:25;;;;;;;2.85;2.10;;;20.40;67.10;;;;;;5053708;28;20185;-58
2022/08/23 00:15:51;;;;;;;3.40;1.73;;;20.40;67.30;;;;;;5053686;28;20633;-59
2022/08/23 00:18:17;;;;;;;2.22;1.63;;;20.40;67.40;;;;;;5053362;28;20642;-59
2022/08/23 00:20:43;;;;;;;2.13;1.83;;;20.40;67.50;;;;;;5053620;28;20182;-58
2022/08/23 00:23:09;;;;;;;4.80;1.92;;;20.40;67.80;;;;;;5053514;28;20173;-59
2022/08/23 00:25:35;;;;;;;3.00;1.65;;;20.30;67.80;;;;;;5053533;28;20638;-60
2022/08/23 00:28:01;;;;;;;4.28;2.22;;;20.30;67.90;;;;;;5053332;28;20202;-58
2022/08/23 00:30:26;;;;;;;3.25;1.80;;;20.20;68.20;;;;;;5053433;28;20264;-58
2022/08/23 00:32:52;;;;;;;4.80;1.60;;;20.20;68.40;;;;;;5053354;28;20209;-59
2022/08/23 00:35:19;;;;;;;3.47;2.05;;;20.20;68.50;;;;;;5053251;28;20232;-59
2022/08/23 00:37:46;;;;;;;2.80;1.90;;;20.20;68.60;;;;;;5053295;28;20235;-59
2022/08/23 00:40:15;;;;;;;5.55;2.00;;;20.20;68.60;;;;;;5053222;28;20173;-58
2022/08/23 00:48:39;;;;;;;1.95;1.70;;;20.00;68.90;;;;;;5053260;28;20592;-58
2022/08/23 00:51:20;;;;;;;2.47;1.85;;;20.00;69.00;;;;;;5052828;28;20185;-59
2022/08/23 00:53:49;;;;;;;3.10;1.83;;;20.00;69.10;;;;;;5053015;28;20189;-59
2022/08/23 00:56:21;;;;;;;3.53;1.70;;;20.00;69.20;;;;;;5052968;28;20180;-58
2022/08/23 00:58:48;;;;;;;2.38;1.80;;;20.00;69.20;;;;;;5053033;28;20639;-58
2022/08/23 01:01:15;;;;;;;3.25;1.80;;;20.00;69.20;;;;;;5052603;28;20225;-58
2022/08/23 01:03:43;;;;;;;3.42;2.05;;;19.90;69.40;;;;;;5052788;28;20182;-58
2022/08/23 01:06:15;;;;;;;2.53;2.15;;;19.90;69.40;;;;;;5052613;28;20192;-58
2022/08/23 01:08:48;;;;;;;3.55;1.65;;;19.90;69.50;;;;;;5052661;28;20535;-58
2022/08/23 01:11:25;;;;;;;3.35;2.00;;;19.90;69.50;;;;;;5052672;28;20235;-58
2022/08/23 01:13:57;;;;;;;3.20;1.75;;;19.90;69.60;;;;;;5052692;28;20169;-59
2022/08/23 01:16:32;;;;;;;3.15;1.90;;;19.90;69.80;;;;;;5052684;28;20221;-58
2022/08/23 01:19:00;;;;;;;4.63;1.73;;;19.90;69.80;;;;;;5052442;28;20181;-58
2022/08/23 01:21:35;;;;;;;3.22;1.60;;;19.90;69.80;;;;;;5052557;28;20272;-58
2022/08/23 01:24:02;;;;;;;3.95;2.03;;;20.00;69.90;;;;;;5052307;28;20790;-58
2022/08/23 01:26:33;;;;;;;2.75;1.55;;;20.00;69.80;;;;;;5052388;28;20664;-58
2022/08/23 01:29:01;;;;;;;2.72;1.67;;;20.00;70.50;;;;;;5051967;28;20220;-59
2022/08/23 01:31:27;;;;;;;1.95;1.50;;;20.00;70.60;;;;;;5051894;28;20201;-58
2022/08/23 01:33:58;;;;;;;2.75;1.88;;;19.90;71.30;;;;;;5052149;28;20621;-59
2022/08/23 01:36:24;;;;;;;2.50;1.90;;;19.80;71.00;;;;;;5052226;28;20214;-58
2022/08/23 01:38:49;;;;;;;2.20;1.77;;;19.80;71.30;;;;;;5052135;28;20657;-58
2022/08/23 01:41:15;;;;;;;4.40;2.20;;;19.70;71.60;;;;;;5052111;28;20185;-58
2022/08/23 01:43:41;;;;;;;3.58;2.08;;;19.60;72.00;;;;;;5051968;28;20193;-59
2022/08/23 01:46:13;;;;;;;3.45;1.98;;;19.50;72.20;;;;;;5051916;28;20177;-58
2022/08/23 01:48:39;;;;;;;2.78;1.90;;;19.50;72.70;;;;;;5051915;28;20185;-58
2022/08/23 01:51:04;;;;;;;2.38;1.60;;;19.40;72.90;;;;;;5051924;28;20177;-58
2022/08/23 01:53:30;;;;;;;4.28;1.98;;;19.40;73.20;;;;;;5051993;28;20689;-58
2022/08/23 01:55:57;;;;;;;2.15;1.95;;;19.30;73.10;;;;;;5051887;28;20174;-58
2022/08/23 01:58:22;;;;;;;2.10;1.80;;;19.30;73.10;;;;;;5051864;28;20177;-58
2022/08/23 02:00:48;;;;;;;2.13;1.90;;;19.20;73.30;;;;;;5051636;28;20279;-58
2022/08/23 02:03:14;;;;;;;4.20;2.15;;;19.20;73.20;;;;;;5051921;28;20594;-58
2022/08/23 02:05:41;;;;;;;3.10;1.88;;;19.10;73.40;;;;;;5051785;28;20223;-58
2022/08/23 02:10:52;;;;;;;2.40;2.20;;;19.00;73.70;;;;;;5052003;28;20185;-58
2022/08/23 02:13:18;;;;;;;3.00;1.88;;;19.00;74.20;;;;;;5051329;28;20666;-58
2022/08/23 02:15:45;;;;;;;2.17;1.75;;;18.90;74.30;;;;;;5051564;28;20538;-59
2022/08/23 02:18:12;;;;;;;1.80;1.60;;;18.90;74.70;;;;;;5051497;28;20209;-58
2022/08/23 02:20:43;;;;;;;2.30;1.90;;;18.80;74.90;;;;;;5051433;28;20204;-58
2022/08/23 02:23:09;;;;;;;2.67;2.05;;;18.80;75.00;;;;;;5051355;28;20235;-58
2022/08/23 02:25:34;;;;;;;2.30;2.10;;;18.80;75.50;;;;;;5051537;28;20633;-58
2022/08/23 02:28:00;;;;;;;4.13;1.80;;;18.70;75.70;;;;;;5051189;28;20265;-58
2022/08/23 02:30:26;;;;;;;2.75;1.80;;;18.70;75.60;;;;;;5051296;28;20310;-58
2022/08/23 02:32:51;;;;;;;2.17;1.98;;;18.70;75.50;;;;;;5051321;28;20212;-58
2022/08/23 02:35:17;;;;;;;2.58;1.90;;;18.60;75.80;;;;;;5051256;28;20174;-58
2022/08/23 02:37:42;;;;;;;4.20;2.10;;;18.60;75.90;;;;;;5051261;28;20629;-58
2022/08/23 02:40:09;;;;;;;4.03;2.05;;;18.50;76.30;;;;;;5051284;28;20268;-58
2022/08/23 02:42:34;;;;;;;5.95;2.00;;;18.50;76.50;;;;;;5054971;28;20173;-58
2022/08/23 02:45:00;;;;;;;3.35;1.73;;;18.40;76.70;;;;;;5055068;28;20185;-58
2022/08/23 02:47:25;;;;;;;2.85;2.10;;;18.40;77.30;;;;;;5055180;28;20181;-58
2022/08/23 02:49:52;;;;;;;4.43;2.38;;;18.40;78.10;;;;;;5055170;28;20713;-58
2022/08/23 02:52:18;;;;;;;2.67;1.88;;;18.40;78.80;;;;;;5054785;28;20668;-58
2022/08/23 02:54:43;;;;;;;3.55;2.10;;;18.40;79.80;;;;;;5055042;28;20185;-60
2022/08/23 02:57:09;;;;;;;2.58;2.38;;;18.30;80.30;;;;;;5055055;28;20618;-58
2022/08/23 02:59:34;;;;;;;3.05;2.20;;;18.30;80.80;;;;;;5055076;28;20810;-58
2022/08/23 03:02:00;;;;;;;2.67;2.08;;;18.20;81.50;;;;;;5054578;28;20578;-58
2022/08/23 03:04:26;;;;;;;2.40;1.83;;;18.20;82.20;;;;;;5054937;28;20182;-58
2022/08/23 03:06:52;;;;;;;3.35;2.17;;;18.10;83.30;;;;;;5054803;28;20231;-58
2022/08/23 03:09:17;;;;;;;2.88;1.90;;;18.10;83.80;;;;;;5054690;28;20197;-58
2022/08/23 03:11:45;;;;;;;2.20;2.00;;;18.10;84.90;;;;;;5054821;28;20205;-58
2022/08/23 03:14:11;;;;;;;2.42;2.15;;;18.10;86.00;;;;;;5054691;28;20272;-58
2022/08/23 03:16:37;;;;;;;2.38;2.17;;;18.00;86.30;;;;;;5054481;28;20255;-58
2022/08/23 03:19:02;;;;;;;2.67;2.13;;;18.00;86.50;;;;;;5054772;28;20205;-58
2022/08/23 03:21:28;;;;;;;3.58;2.00;;;17.90;86.50;;;;;;5054728;28;20177;-58
2022/08/23 03:23:54;;;;;;;2.38;2.00;;;17.90;86.30;;;;;;5054659;28;20272;-58
2022/08/23 03:26:20;;;;;;;2.70;2.10;;;17.90;86.60;;;;;;5054561;28;20173;-58
2022/08/23 03:28:46;;;;;;;3.22;2.20;;;17.80;88.30;;;;;;5054482;28;20165;-58
2022/08/23 03:31:13;;;;;;;4.85;2.22;;;17.80;89.10;;;;;;5053315;28;20177;-58
2022/08/23 03:33:38;;;;;;;3.38;2.10;;;17.70;89.80;;;;;;5054366;28;20200;-58
2022/08/23 03:36:06;;;;;;;2.45;2.03;;;17.60;90.20;;;;;;5054332;28;20177;-58
2022/08/23 03:38:32;;;;;;;2.90;2.20;;;17.60;90.70;;;;;;5054382;28;20663;-58
2022/08/23 03:40:58;;;;;;;2.70;2.17;;;17.60;91.10;;;;;;5054019;28;20269;-58
2022/08/23 03:43:25;;;;;;;2.35;1.92;;;17.50;91.40;;;;;;5054343;28;20181;-58
2022/08/23 03:45:50;;;;;;;2.78;2.05;;;17.50;91.60;;;;;;5052974;28;20536;-58
2022/08/23 03:48:16;;;;;;;2.70;2.50;;;17.40;91.90;;;;;;5054422;28;20170;-58
2022/08/23 03:50:43;;;;;;;2.78;2.45;;;17.40;92.20;;;;;;5054253;28;20177;-58
2022/08/23 03:53:08;;;;;;;3.45;2.35;;;17.30;92.60;;;;;;5053514;28;20216;-58
2022/08/23 03:55:34;;;;;;;4.10;2.63;;;17.30;93.00;;;;;;5054251;28;20174;-58
2022/08/23 03:57:59;;;;;;;3.50;2.38;;;17.30;93.40;;;;;;5053890;28;20177;-58
2022/08/23 04:00:25;;;;;;;5.10;2.47;;;17.30;93.70;;;;;;5054189;28;20181;-58
2022/08/23 04:02:51;;;;;;;2.80;2.60;;;17.30;94.00;;;;;;5053912;28;20197;-58
2022/08/23 04:05:16;;;;;;;2.28;2.05;;;17.20;94.10;;;;;;5053799;28;20173;-58
2022/08/23 04:07:42;;;;;;;4.80;2.38;;;17.20;94.40;;;;;;5053984;28;20185;-57
2022/08/23 04:10:08;;;;;;;2.78;2.13;;;17.10;94.50;;;;;;5053862;28;20172;-58
2022/08/23 04:12:34;;;;;;;2.45;2.20;;;17.10;94.60;;;;;;5052553;28;20237;-58
2022/08/23 04:15:01;;;;;;;2.72;2.08;;;17.10;94.10;;;;;;5053611;28;20173;-58
2022/08/23 04:17:27;;;;;;;3.78;2.05;;;17.10;94.10;;;;;;5053761;28;20181;-58
2022/08/23 04:19:53;;;;;;;2.40;2.20;;;17.00;94.40;;;;;;5053599;28;20165;-58
2022/08/23 04:22:19;;;;;;;2.35;2.00;;;17.00;94.40;;;;;;5053726;28;20239;-58
2022/08/23 04:24:45;;;;;;;4.38;2.10;;;17.00;94.40;;;;;;5053551;28;20181;-58
2022/08/23 04:27:12;;;;;;;4.10;2.00;;;17.00;94.50;;;;;;5053644;28;20612;-58
2022/08/23 04:29:38;;;;;;;2.67;2.10;;;17.00;94.90;;;;;;5053371;28;20192;-58
2022/08/23 04:32:05;;;;;;;2.38;2.00;;;17.00;94.70;;;;;;5053346;28;20209;-58
2022/08/23 04:34:32;;;;;;;3.95;2.20;;;17.00;94.70;;;;;;5053276;28;20687;-58
2022/08/23 04:36:58;;;;;;;3.75;2.45;;;17.00;94.80;;;;;;5053191;28;20597;-58
2022/08/23 04:39:24;;;;;;;2.78;2.08;;;16.90;94.80;;;;;;5053312;28;20256;-58
2022/08/23 04:44:34;;;;;;;4.18;2.13;;;16.80;95.00;;;;;;5053352;28;20180;-58
2022/08/23 04:47:00;;;;;;;4.93;2.10;;;16.80;95.10;;;;;;5053026;28;20178;-58
2022/08/23 04:49:25;;;;;;;2.42;1.90;;;16.80;95.20;;;;;;5052967;28;20255;-58
2022/08/23 04:51:51;;;;;;;3.85;2.20;;;16.80;95.30;;;;;;5052753;28;20205;-58
2022/08/23 04:54:17;;;;;;;2.28;2.05;;;16.80;95.40;;;;;;5051558;28;20220;-58
2022/08/23 04:56:42;;;;;;;4.13;2.30;;;16.80;95.50;;;;;;5052858;28;20173;-58
2022/08/23 04:59:08;;;;;;;5.45;2.28;;;16.80;95.70;;;;;;5052726;28;20182;-58
2022/08/23 05:01:34;;;;;;;6.28;2.17;;;16.80;95.60;;;;;;5052510;28;20240;-58
2022/08/23 05:04:00;;;;;;;2.42;2.00;;;16.80;95.90;;;;;;5051930;28;20653;-58
2022/08/23 05:06:27;;;;;;;4.28;2.00;;;16.90;95.60;;;;;;5052331;28;20280;-58
2022/08/23 05:08:53;;;;;;;3.47;2.47;;;16.90;95.70;;;;;;5052627;28;20181;-58
2022/08/23 05:11:19;;;;;;;4.25;2.08;;;17.00;95.70;;;;;;5052390;28;20187;-58
2022/08/23 05:13:45;;;;;;;6.35;2.08;;;17.00;95.70;;;;;;5052539;28;20193;-58
2022/08/23 05:16:11;;;;;;;3.13;2.25;;;17.20;95.70;;;;;;5052634;28;20176;-58
2022/08/23 05:18:37;;;;;;;6.13;2.30;;;17.30;95.50;;;;;;5052471;28;20188;-58
2022/08/23 05:21:03;;;;;;;3.15;2.00;;;17.60;95.40;;;;;;5052576;28;20173;-58
2022/08/23 05:23:28;;;;;;;2.60;2.40;;;17.90;94.90;;;;;;5052606;28;20659;-58
2022/08/23 05:25:55;;;;;;;3.83;2.30;;;18.20;94.40;;;;;;5052435;28;20185;-58
2022/08/23 05:28:29;;;;;;;6.30;2.33;;;18.50;94.00;;;;;;5052299;28;20641;-58
2022/08/23 05:30:57;;;;;;;4.07;2.10;;;18.70;93.40;;;;;;5052359;28;20590;-58
2022/08/23 05:33:23;;;;;;;3.42;2.00;;;18.90;92.90;;;;;;5052303;28;20740;-58
2022/08/23 05:35:49;;;;;;;3.08;1.90;;;19.10;92.60;;;;;;5052240;28;20264;-58
2022/08/23 05:38:15;;;;;;;2.45;2.00;;;19.20;92.40;;;;;;5052390;28;20178;-58
2022/08/23 05:40:40;;;;;;;2.63;2.00;;;19.40;92.30;;;;;;5052172;28;20177;-58
2022/08/23 05:43:05;;;;;;;3.00;2.10;;;19.60;92.00;;;;;;5052151;28;20188;-58
2022/08/23 05:45:31;;;;;;;3.67;1.98;;;19.80;91.70;;;;;;5052202;28;20174;-58
2022/08/23 05:47:57;;;;;;;2.95;1.95;;;20.20;91.20;;;;;;5051949;28;20544;-58
2022/08/23 05:50:22;;;;;;;3.03;1.92;;;20.60;90.80;;;;;;5052282;28;20515;-58
2022/08/23 05:52:48;;;;;;;3.15;2.00;;;21.00;90.20;;;;;;5051926;28;20286;-59
2022/08/23 05:55:13;;;;;;;4.43;2.40;;;21.50;88.90;;;;;;5052238;28;20173;-58
2022/08/23 05:57:39;;;;;;;3.80;2.00;;;22.00;86.20;;;;;;5051978;28;20186;-59
2022/08/23 06:00:16;;;;;;;4.82;2.30;;;22.40;84.80;;;;;;5051952;28;20177;-59
2022/08/23 06:02:42;;;;;;;3.53;2.03;;;22.90;83.10;;;;;;5051914;28;20220;-59
2022/08/23 06:05:08;;;;;;;6.97;2.70;;;23.40;81.50;;;;;;5050534;28;20165;-59
2022/08/23 06:07:34;;;;;;;6.05;2.00;;;23.80;79.60;;;;;;5051997;28;20280;-59
2022/08/23 06:10:00;;;;;;;2.00;1.80;;;24.30;77.50;;;;;;5051644;28;20177;-59
2022/08/23 06:12:26;;;;;;;3.70;2.17;;;24.70;75.40;;;;;;5051746;28;20278;-59
2022/08/23 06:14:51;;;;;;;2.17;1.98;;;25.20;73.30;;;;;;5051764;28;20177;-59
2022/08/23 06:17:17;;;;;;;2.35;2.10;;;25.70;71.70;;;;;;5057688;28;20185;-59
2022/08/23 06:19:42;;;;;;;2.40;1.92;;;26.10;70.40;;;;;;5058579;28;20173;-59
2022/08/23 06:22:08;;;;;;;2.67;1.90;;;26.40;68.00;;;;;;5058388;28;20652;-59
2022/08/23 06:24:34;;;;;;;3.00;2.08;;;26.80;66.20;;;;;;5058483;28;20177;-59
2022/08/23 06:26:59;;;;;;;4.68;2.00;;;27.20;64.70;;;;;;5058140;28;20280;-59
2022/08/23 06:29:25;;;;;;;3.67;2.05;;;27.50;63.20;;;;;;5058486;28;20185;-59
2022/08/23 06:31:52;;;;;;;2.17;1.90;;;27.80;61.20;;;;;;5056985;28;20205;-59
2022/08/23 06:34:23;;;;;;;2.40;1.98;;;28.10;60.40;;;;;;5058366;28;20657;-59
2022/08/23 06:37:03;;;;;;;3.45;1.85;;;28.40;59.40;;;;;;5058330;28;20181;-59
2022/08/23 06:39:30;;;;;;;21.95;2.95;;;28.60;58.70;;;;;;5058431;28;20185;-59
2022/08/23 06:42:18;;;;;;;2.70;1.92;;;29.10;57.60;;;;;;5058234;28;20173;-59
2022/08/23 06:44:43;;;;;;;6.25;2.22;;;29.60;56.50;;;;;;5058367;28;20280;-60
2022/08/23 06:47:09;;;;;;;3.50;1.95;;;30.00;55.10;;;;;;5058203;28;20208;-59
2022/08/23 06:49:35;;;;;;;3.50;2.42;;;30.30;54.20;;;;;;5058227;28;20702;-59
2022/08/23 06:52:03;;;;;;;5.90;1.90;;;30.50;53.60;;;;;;5057983;28;20213;-59
2022/08/23 06:54:30;;;;;;;1.77;1.67;;;30.70;52.50;;;;;;5058274;28;20185;-59
2022/08/23 06:56:56;;;;;;;2.10;1.90;;;31.10;51.90;;;;;;5058187;28;20242;-60
2022/08/23 06:59:22;;;;;;;2.42;1.80;;;31.10;51.90;;;;;;5058209;28;20174;-60
2022/08/23 07:01:57;;;;;;;2.67;1.80;;;31.10;51.60;;;;;;5057885;28;20595;-60
2022/08/23 07:04:29;;;;;;;3.75;1.80;;;31.30;51.40;;;;;;5058235;28;20180;-60
2022/08/23 07:06:55;;;;;;;2.53;1.92;;;31.60;50.90;;;;;;5058101;28;20540;-60
2022/08/23 07:09:21;;;;;;;4.93;1.90;;;31.80;50.50;;;;;;5058065;28;20180;-60
2022/08/23 07:11:47;;;;;;;4.07;1.80;;;32.10;49.90;;;;;;5057972;28;20199;-60
2022/08/23 07:14:15;;;;;;;3.80;2.00;;;32.60;48.90;;;;;;5058070;28;20226;-58
2022/08/23 07:17:02;;;;;;;2.50;1.70;;;33.10;48.10;;;;;;5057881;28;20181;-58
2022/08/23 07:19:31;;;;;;;2.17;1.67;;;33.40;47.20;;;;;;5058057;28;20259;-58
2022/08/23 07:21:59;;;;;;;6.25;2.10;;;33.70;46.60;;;;;;5057813;28;20180;-58
2022/08/23 07:24:25;;;;;;;3.05;1.73;;;33.90;46.00;;;;;;5058078;28;20239;-58
2022/08/23 07:26:51;;;;;;;3.55;1.60;;;34.00;45.80;;;;;;5057184;28;20208;-58
2022/08/23 07:29:18;;;;;;;2.08;1.60;;;34.10;45.30;;;;;;5053951;28;20261;-58
2022/08/23 07:31:47;;;;;;;9.13;2.00;;;34.10;45.30;;;;;;5054618;28;20399;-59
2022/08/23 07:34:13;;;;;;;3.35;1.83;;;34.40;44.90;;;;;;5054759;28;20180;-58
2022/08/23 07:36:41;;;;;;;2.95;1.98;;;34.80;44.00;;;;;;5054619;28;20191;-58
2022/08/23 07:39:08;;;;;;;3.55;1.67;;;35.00;43.70;;;;;;5054609;28;20242;-58
2022/08/23 07:41:34;;;;;;;9.38;1.90;;;35.20;43.40;;;;;;5054661;28;20176;-58
2022/08/23 07:44:01;;;;;;;5.82;1.85;;;35.20;43.60;;;;;;5054373;28;20261;-58
2022/08/23 07:46:28;;;;;;;3.53;1.90;;;35.40;43.00;;;;;;5054406;28;20271;-58
2022/08/23 07:48:57;;;;;;;3.47;2.03;;;35.50;42.80;;;;;;5054454;28;20192;-58
2022/08/23 07:51:23;;;;;;;2.60;1.90;;;35.70;42.80;;;;;;5054312;28;20181;-58
2022/08/23 07:53:49;;;;;;;2.33;1.80;;;35.90;41.80;;;;;;5054261;28;20185;-59
2022/08/23 07:56:16;;;;;;;4.15;1.80;;;35.80;41.80;;;;;;5054293;28;20173;-58
2022/08/23 07:58:42;;;;;;;4.60;1.80;;;35.70;42.10;;;;;;5054225;28;20260;-58
2022/08/23 08:01:14;;;;;;;2.47;1.70;;;35.90;42.30;;;;;;5053930;28;20336;-59
2022/08/23 08:03:42;;;;;;;3.60;1.95;;;36.10;42.00;;;;;;5054060;28;20189;-58
2022/08/23 08:06:15;;;;;;;2.67;1.90;;;36.20;41.60;;;;;;5054041;28;20547;-58
2022/08/23 08:08:41;;;;;;;2.15;1.38;;;36.20;42.50;;;;;;5053888;28;20208;-58
2022/08/23 08:11:10;;;;;;;2.40;1.95;;;36.30;42.40;;;;;;5054023;28;20189;-59
2022/08/23 08:13:43;;;;;;;5.43;1.75;;;36.40;41.50;;;;;;5053903;28;20216;-58
2022/08/23 08:16:18;;;;;;;2.45;1.80;;;36.50;41.60;;;;;;5053756;28;20181;-58
2022/08/23 08:18:44;;;;;;;2.97;1.95;;;36.60;40.90;;;;;;5053849;28;20207;-59
2022/08/23 08:21:14;;;;;;;3.40;2.00;;;36.70;40.40;;;;;;5053753;28;20284;-58
2022/08/23 08:23:41;;;;;;;2.15;1.80;;;36.80;41.60;;;;;;5053525;28;20183;-58
2022/08/23 08:26:08;;;;;;;3.78;1.95;;;36.90;40.60;;;;;;5053649;28;20233;-58
2022/08/23 08:28:35;;;;;;;3.03;2.00;;;36.90;40.90;;;;;;5053791;28;20177;-59
2022/08/23 08:31:01;;;;;;;4.45;1.92;;;37.00;39.40;;;;;;5053322;28;20177;-58
2022/08/23 08:33:27;;;;;;;3.33;2.08;;;37.10;39.60;;;;;;5053557;28;20205;-58
2022/08/23 08:35:53;;;;;;;1.80;1.67;;;37.00;38.70;;;;;;5053408;28;20208;-59
2022/08/23 08:38:19;;;;;;;4.47;2.00;;;36.80;40.00;;;;;;5053261;28;20286;-58
2022/08/23 08:40:45;;;;;;;4.70;2.10;;;36.90;39.10;;;;;;5053360;28;20188;-59
2022/08/23 08:43:13;;;;;;;3.50;2.08;;;36.90;39.20;;;;;;5053212;28;20561;-59
2022/08/23 08:46:03;;;;;;;1.90;1.70;;;36.80;39.60;;;;;;5053331;28;20180;-58
2022/08/23 08:48:38;;;;;;;2.47;1.98;;;36.90;39.60;;;;;;5053385;28;20235;-59
2022/08/23 08:51:28;;;;;;;2.58;2.30;;;36.90;38.60;;;;;;5053112;28;20226;-58
2022/08/23 08:53:55;;;;;;;3.55;1.73;;;36.80;38.70;;;;;;5052993;28;20784;-59
2022/08/23 08:56:24;;;;;;;3.58;1.88;;;36.70;40.60;;;;;;5052981;28;20209;-58
2022/08/23 08:58:51;;;;;;;2.03;1.88;;;36.20;40.20;;;;;;5052914;28;20526;-59
2022/08/23 09:01:19;;;;;;;3.67;2.22;;;36.10;41.10;;;;;;5052628;28;20223;-59
2022/08/23 09:03:44;;;;;;;4.00;2.13;;;36.30;39.70;;;;;;5052736;28;20533;-59
2022/08/23 09:06:33;;;;;;;4.22;2.10;;;36.40;39.70;;;;;;5052821;28;20177;-58
2022/08/23 09:09:25;;;;;;;2.72;1.92;;;36.40;40.30;;;;;;5052585;28;20177;-59
2022/08/23 09:11:51;;;;;;;3.60;1.80;;;36.40;40.30;;;;;;5052609;28;20533;-59
2022/08/23 09:14:44;;;;;;;2.10;1.55;;;36.50;39.60;;;;;;5052545;28;20225;-59
2022/08/23 09:17:39;;;;;;;2.60;2.00;;;36.60;39.00;;;;;;5052549;28;20191;-59
2022/08/23 09:20:14;;;;;;;4.05;2.17;;;36.60;39.70;;;;;;5047600;28;20177;-59
2022/08/23 09:22:45;;;;;;;3.47;2.25;;;36.10;40.90;;;;;;5052382;28;20219;-59
2022/08/23 09:25:13;;;;;;;4.00;1.95;;;36.00;40.40;;;;;;5052447;28;20176;-58
2022/08/23 09:27:42;;;;;;;4.18;1.88;;;36.10;39.80;;;;;;5052223;28;20334;-59
2022/08/23 09:30:10;;;;;;;2.58;1.80;;;36.20;40.70;;;;;;5052311;28;20234;-59
2022/08/23 09:32:38;;;;;;;3.70;2.15;;;36.30;39.50;;;;;;5052342;28;20219;-59
2022/08/23 09:35:17;;;;;;;5.43;2.05;;;36.40;40.10;;;;;;5052213;28;20211;-59
2022/08/23 09:38:00;;;;;;;3.55;2.10;;;36.50;40.50;;;;;;5052307;28;20180;-59
2022/08/23 09:40:46;;;;;;;4.22;2.00;;;36.70;40.10;;;;;;5052291;28;20177;-60
2022/08/23 09:43:15;;;;;;;4.10;1.92;;;36.80;38.70;;;;;;5052187;28;20734;-60
2022/08/23 09:46:00;;;;;;;1.95;1.80;;;36.80;39.10;;;;;;5052045;28;20261;-60
2022/08/23 09:48:42;;;;;;;2.22;2.03;;;36.90;39.90;;;;;;5051907;28;20279;-60
2022/08/23 09:51:20;;;;;;;3.53;1.98;;;37.00;38.70;;;;;;5051477;28;20538;-60
2022/08/23 09:54:06;;;;;;;3.80;1.95;;;37.10;39.20;;;;;;5052078;28;20188;-60
2022/08/23 09:56:39;;;;;;;3.03;2.00;;;37.10;38.50;;;;;;5052045;28;20191;-60
2022/08/23 09:59:21;;;;;;;3.65;1.63;;;37.10;39.40;;;;;;5051954;28;20208;-60
2022/08/23 10:01:50;;;;;;;2.97;1.80;;;37.00;37.70;;;;;;5051750;28;20286;-60
2022/08/23 10:04:29;;;;;;;2.53;2.00;;;37.00;39.90;;;;;;5052075;28;20541;-59
2022/08/23 10:06:54;;;;;;;5.07;1.90;;;37.10;38.70;;;;;;5051794;28;20184;-60
2022/08/23 10:09:31;;;;;;;2.08;1.80;;;37.20;37.70;;;;;;5051836;28;20227;-60
2022/08/23 10:12:00;;;;;;;2.10;1.80;;;37.40;37.80;;;;;;5051679;28;20577;-60
2022/08/23 10:14:28;;;;;;;3.30;1.90;;;37.30;37.90;;;;;;5051846;28;20230;-60
2022/08/23 10:16:58;;;;;;;2.80;1.70;;;37.50;36.70;;;;;;5051707;28;20184;-60
2022/08/23 10:19:41;;;;;;;1.88;1.45;;;37.40;36.00;;;;;;5051873;28;20252;-60
2022/08/23 10:22:20;;;;;;;3.90;1.73;;;37.20;36.00;;;;;;5051688;28;20533;-60
2022/08/23 10:25:03;;;;;;;2.20;2.00;;;37.10;36.30;;;;;;5051769;28;20204;-60
2022/08/23 10:30:48;;;;;;;2.90;1.98;;;37.10;35.00;;;;;;5051700;28;20234;-60
2022/08/23 10:33:24;;;;;;;2.33;1.55;;;37.20;34.90;;;;;;5051845;28;20215;-60
2022/08/23 10:36:13;;;;;;;4.00;1.80;;;37.20;35.00;;;;;;5051673;28;20172;-60
2022/08/23 10:38:48;;;;;;;2.55;1.80;;;37.10;35.90;;;;;;5051528;28;20254;-60
2022/08/23 10:41:43;;;;;;;2.30;1.70;;;37.10;36.10;;;;;;5051683;28;20217;-60
2022/08/23 10:44:35;;;;;;;1.80;1.70;;;37.20;35.30;;;;;;5051589;28;20640;-60
2022/08/23 10:47:16;;;;;;;1.73;1.52;;;37.10;35.00;;;;;;5051408;28;20173;-60
2022/08/23 10:49:44;;;;;;;2.03;1.63;;;36.70;34.90;;;;;;5051617;28;20189;-60
2022/08/23 10:52:17;;;;;;;2.33;1.67;;;36.60;36.20;;;;;;5051336;28;20672;-60
2022/08/23 10:55:04;;;;;;;3.25;1.60;;;36.60;36.40;;;;;;5051559;28;20271;-61
2022/08/23 10:57:36;;;;;;;3.80;2.17;;;36.70;35.70;;;;;;5051352;28;20725;-59
2022/08/23 11:00:09;;;;;;;4.00;1.70;;;36.70;35.50;;;;;;5051372;28;20204;-60
2022/08/23 11:02:56;;;;;;;2.78;1.73;;;36.70;35.20;;;;;;5051637;28;20303;-60
2022/08/23 11:05:34;;;;;;;3.53;1.65;;;36.60;35.80;;;;;;5055003;28;20173;-61
2022/08/23 11:08:07;;;;;;;3.67;1.73;;;36.60;35.20;;;;;;5054870;28;20204;-60
2022/08/23 11:10:38;;;;;;;3.58;1.90;;;36.50;33.80;;;;;;5055100;28;20177;-60
2022/08/23 11:13:10;;;;;;;4.15;2.70;;;36.30;35.30;;;;;;5054927;28;20220;-60
2022/08/23 11:15:42;;;;;;;1.90;1.50;;;36.00;35.30;;;;;;5054997;28;20656;-60
2022/08/23 11:18:10;;;;;;;2.30;1.70;;;36.00;34.40;;;;;;5054861;28;20189;-60
2022/08/23 11:20:48;;;;;;;1.73;1.50;;;36.10;34.60;;;;;;5054863;28;20171;-60
2022/08/23 11:23:32;;;;;;;2.35;1.70;;;36.20;35.80;;;;;;5054692;28;20187;-60
2022/08/23 11:25:58;;;;;;;2.22;1.70;;;36.40;35.40;;;;;;5054733;28;20184;-60
2022/08/23 11:28:26;;;;;;;2.47;1.45;;;36.40;34.70;;;;;;5054791;28;20260;-60
2022/08/23 11:30:55;;;;;;;3.65;1.65;;;36.60;34.00;;;;;;5054610;28;20192;-60
2022/08/23 11:33:30;;;;;;;1.70;1.60;;;36.60;33.30;;;;;;5054361;28;20863;-60
2022/08/23 11:36:07;;;;;;;3.55;1.58;;;36.60;33.20;;;;;;5054555;28;20180;-60
2022/08/23 11:38:48;;;;;;;1.80;1.67;;;36.40;32.60;;;;;;5054509;28;20358;-60
2022/08/23 11:41:26;;;;;;;2.03;1.70;;;36.40;33.40;;;;;;5054482;28;20679;-60
2022/08/23 11:43:54;;;;;;;1.65;1.30;;;36.50;33.00;;;;;;5054312;28;20173;-60
2022/08/23 11:46:31;;;;;;;4.20;1.88;;;36.60;33.90;;;;;;5054178;28;20544;-60
2022/08/23 11:49:29;;;;;;;1.30;1.20;;;36.70;33.40;;;;;;5054258;28;20173;-60
2022/08/23 11:52:33;;;;;;;3.55;1.50;;;36.90;32.70;;;;;;5054121;28;20577;-60
2022/08/23 11:55:30;;;;;;;3.53;1.65;;;36.90;32.20;;;;;;5054129;28;20326;-60
2022/08/23 11:58:50;;;;;;;2.05;1.30;;;36.80;33.00;;;;;;5054081;28;20185;-60
2022/08/23 12:01:26;;;;;;;2.05;1.50;;;36.70;33.10;;;;;;5054098;28;20252;-60
2022/08/23 12:04:10;;;;;;;1.60;1.50;;;36.40;32.90;;;;;;5054109;28;20249;-60
2022/08/23 12:06:42;;;;;;;1.60;1.23;;;36.20;33.00;;;;;;5053946;28;20668;-60
2022/08/23 12:09:35;;;;;;;2.05;1.48;;;35.90;32.50;;;;;;5053946;28;20185;-60
2022/08/23 12:12:01;;;;;;;3.25;1.60;;;35.70;32.50;;;;;;5053545;28;20705;-60
2022/08/23 12:14:41;;;;;;;2.53;1.42;;;35.50;32.40;;;;;;5053427;28;20189;-60
2022/08/23 12:17:17;;;;;;;2.78;1.40;;;35.40;32.80;;;;;;5053774;28;20227;-60
2022/08/23 12:19:42;;;;;;;2.75;1.48;;;35.10;32.90;;;;;;5053860;28;20250;-60
2022/08/23 12:22:14;;;;;;;2.72;1.45;;;35.10;33.40;;;;;;5053708;28;20619;-60
2022/08/23 12:24:48;;;;;;;2.88;1.77;;;34.90;32.70;;;;;;5053583;28;20173;-60
2022/08/23 12:27:38;;;;;;;2.53;1.40;;;34.80;34.20;;;;;;5053745;28;20262;-60
2022/08/23 12:30:09;;;;;;;1.95;1.60;;;34.80;33.40;;;;;;5053567;28;20184;-60
2022/08/23 12:32:49;;;;;;;2.05;1.30;;;34.80;33.60;;;;;;5053465;28;20601;-60
2022/08/23 12:35:26;;;;;;;1.70;1.60;;;34.80;33.10;;;;;;5053642;28;20330;-60
2022/08/23 12:38:18;;;;;;;2.80;1.33;;;34.50;32.90;;;;;;5053495;28;20177;-60
2022/08/23 12:40:48;;;;;;;1.90;1.30;;;34.40;33.30;;;;;;5053308;28;20181;-61
2022/08/23 12:43:26;;;;;;;2.40;1.52;;;34.10;33.60;;;;;;5053578;28;20189;-60
2022/08/23 12:45:55;;;;;;;1.40;1.30;;;34.00;33.60;;;;;;5053127;28;20181;-60
2022/08/23 12:48:26;;;;;;;1.77;1.40;;;34.10;34.70;;;;;;5053168;28;20185;-60
2022/08/23 12:50:55;;;;;;;1.48;1.38;;;34.20;34.70;;;;;;5053475;28;20525;-60
2022/08/23 12:53:31;;;;;;;2.55;1.40;;;34.50;33.80;;;;;;5052962;28;20209;-60
2022/08/23 12:56:24;;;;;;;3.03;1.40;;;34.50;33.00;;;;;;5053145;28;20180;-60
2022/08/23 12:58:53;;;;;;;1.75;1.60;;;34.40;33.10;;;;;;5052993;28;20181;-60
2022/08/23 13:01:28;;;;;;;1.88;1.45;;;34.30;33.10;;;;;;5052779;28;20313;-60
2022/08/23 13:04:03;;;;;;;2.28;1.58;;;34.30;33.40;;;;;;5052887;28;20263;-60
2022/08/23 13:06:40;;;;;;;3.28;1.40;;;34.20;33.70;;;;;;5052880;28;20189;-60
2022/08/23 13:09:21;;;;;;;2.13;1.48;;;34.40;34.00;;;;;;5052743;28;20173;-60
2022/08/23 13:11:47;;;;;;;1.67;1.40;;;34.30;34.40;;;;;;5051471;28;20188;-60
2022/08/23 13:14:26;;;;;;;4.60;1.83;;;34.40;34.80;;;;;;5052872;28;20181;-60
2022/08/23 13:16:52;;;;;;;3.15;1.50;;;34.50;34.40;;;;;;5052577;28;20204;-60
2022/08/23 13:19:30;;;;;;;2.85;1.33;;;34.60;34.60;;;;;;5052586;28;20173;-60